Time;durP1;ratioP1;P1;durP2;ratioP2;P2;SDS_P1;SDS_P2;PMS_P1;PMS_P2;Temp;Humidity;BMP_temperature;BMP_pressure;BME280_temperature;BME280_humidity;BME280_pressure;Samples;Min_cycle;Max_cycle;Signal;HPM_P1;HPM_P2
2023/10/27 00:00:54;;;;;;;4.83;1.73;;;;;;;;;;5068608;28;20428;-59
2023/10/27 00:03:21;;;;;;;4.83;2.17;;;;;;;;;;5085385;28;20229;-59
2023/10/27 00:05:47;;;;;;;4.40;1.90;;;;;;;;;;5085148;28;20027;-59
2023/10/27 00:08:14;;;;;;;2.37;1.67;;;;;;;;;;5073171;28;20074;-60
2023/10/27 00:10:41;;;;;;;2.27;1.67;;;;;;;;;;5073653;28;20024;-59
2023/10/27 00:13:07;;;;;;;2.50;1.00;;;;;;;;;;5092212;28;20544;-60
2023/10/27 00:15:34;;;;;;;3.53;1.87;;;;;;;;;;5090992;28;20059;-59
2023/10/27 00:18:01;;;;;;;4.50;2.67;;;;;;;;;;5088412;28;20382;-59
2023/10/27 00:20:27;;;;;;;3.10;1.83;;;;;;;;;;5070467;28;20086;-59
2023/10/27 00:22:54;;;;;;;4.43;1.63;;;;;;;;;;5080481;28;20663;-58
2023/10/27 00:25:21;;;;;;;3.57;2.43;;;;;;;;;;5071549;28;20032;-59
2023/10/27 00:27:47;;;;;;;4.27;2.27;;;;;;;;;;5092674;28;20024;-59
2023/10/27 00:30:14;;;;;;;1.37;1.00;;;;;;;;;;5093110;28;20046;-59
2023/10/27 00:32:41;;;;;;;3.17;1.90;;;;;;;;;;5093241;28;20040;-59
2023/10/27 00:35:07;;;;;;;2.10;1.20;;;;;;;;;;5078071;28;20067;-59
2023/10/27 00:37:34;;;;;;;1.93;1.37;;;;;;;;;;5071424;28;20938;-59
2023/10/27 00:40:01;;;;;;;2.57;1.63;;;;;;;;;;5067311;28;20043;-59
2023/10/27 00:42:28;;;;;;;2.80;1.83;;;;;;;;;;5067601;28;20051;-59
2023/10/27 00:44:55;;;;;;;2.67;1.87;;;;;;;;;;5067672;28;20024;-58
2023/10/27 00:47:21;;;;;;;3.10;1.73;;;;;;;;;;5067571;28;20483;-59
2023/10/27 00:49:48;;;;;;;3.13;1.50;;;;;;;;;;5072630;28;20082;-59
2023/10/27 00:52:15;;;;;;;2.37;1.60;;;;;;;;;;5092372;28;20040;-58
2023/10/27 00:54:44;;;;;;;2.37;1.63;;;;;;;;;;5092692;28;20095;-59
2023/10/27 00:57:10;;;;;;;2.13;1.40;;;;;;;;;;5092566;28;20028;-58
2023/10/27 00:59:37;;;;;;;3.67;1.40;;;;;;;;;;5091991;28;20375;-59
2023/10/27 01:02:04;;;;;;;2.07;1.40;;;;;;;;;;5087458;28;20054;-58
2023/10/27 01:04:31;;;;;;;17.33;2.73;;;;;;;;;;5087315;28;20055;-58
2023/10/27 01:06:58;;;;;;;3.03;1.83;;;;;;;;;;5076684;28;20024;-58
2023/10/27 01:09:24;;;;;;;3.00;2.10;;;;;;;;;;5059005;28;20052;-59
2023/10/27 01:11:52;;;;;;;3.30;2.43;;;;;;;;;;5062436;28;20227;-58
2023/10/27 01:14:18;;;;;;;4.00;1.83;;;;;;;;;;5052757;28;20156;-59
2023/10/27 01:16:45;;;;;;;4.63;2.97;;;;;;;;;;5068725;28;20467;-59
2023/10/27 01:19:12;;;;;;;7.57;2.63;;;;;;;;;;5072943;28;20031;-59
2023/10/27 01:21:38;;;;;;;2.73;1.80;;;;;;;;;;5073045;28;20021;-58
2023/10/27 01:24:05;;;;;;;4.00;2.70;;;;;;;;;;5061596;28;20027;-59
2023/10/27 01:26:32;;;;;;;9.77;2.77;;;;;;;;;;5066495;28;20482;-58
2023/10/27 01:28:59;;;;;;;3.87;2.80;;;;;;;;;;5067567;28;20024;-59
2023/10/27 01:31:25;;;;;;;5.83;3.07;;;;;;;;;;5066903;28;20031;-59
2023/10/27 01:33:52;;;;;;;2.50;1.80;;;;;;;;;;5070529;28;20021;-59
2023/10/27 01:36:19;;;;;;;8.37;3.43;;;;;;;;;;5071666;28;20021;-60
2023/10/27 01:38:46;;;;;;;3.43;2.37;;;;;;;;;;5071800;28;20047;-60
2023/10/27 01:41:12;;;;;;;4.90;2.97;;;;;;;;;;5071356;28;20452;-59
2023/10/27 01:43:39;;;;;;;4.77;2.60;;;;;;;;;;5071194;28;20068;-59
2023/10/27 01:46:06;;;;;;;3.40;2.10;;;;;;;;;;5067289;28;20063;-60
2023/10/27 01:48:32;;;;;;;4.47;2.90;;;;;;;;;;5066283;28;20058;-59
2023/10/27 01:50:59;;;;;;;3.40;2.30;;;;;;;;;;5066136;28;20028;-60
2023/10/27 01:53:26;;;;;;;3.43;2.23;;;;;;;;;;5066028;28;20036;-60
2023/10/27 01:55:52;;;;;;;9.13;2.90;;;;;;;;;;5069081;28;20029;-59
2023/10/27 01:58:19;;;;;;;12.17;3.17;;;;;;;;;;5071299;28;20032;-59
2023/10/27 02:00:46;;;;;;;3.23;2.20;;;;;;;;;;5071243;28;20082;-60
2023/10/27 02:03:13;;;;;;;3.57;2.47;;;;;;;;;;5070797;28;20024;-59
2023/10/27 02:05:44;;;;;;;4.23;2.70;;;;;;;;;;5071187;28;20035;-60
2023/10/27 02:08:10;;;;;;;16.27;3.07;;;;;;;;;;5067944;28;20026;-59
2023/10/27 02:10:37;;;;;;;4.93;2.37;;;;;;;;;;5065826;28;20081;-59
2023/10/27 02:13:04;;;;;;;3.70;2.30;;;;;;;;;;5065695;28;20092;-59
2023/10/27 02:15:31;;;;;;;4.37;2.67;;;;;;;;;;5047852;28;20382;-59
2023/10/27 02:17:58;;;;;;;4.13;2.23;;;;;;;;;;5068310;28;20029;-59
2023/10/27 02:20:25;;;;;;;6.83;2.87;;;;;;;;;;5071148;28;20425;-59
2023/10/27 02:22:51;;;;;;;7.63;3.87;;;;;;;;;;5070872;28;20099;-59
2023/10/27 02:25:18;;;;;;;4.27;3.03;;;;;;;;;;5071109;28;20058;-60
2023/10/27 02:27:44;;;;;;;4.20;2.97;;;;;;;;;;5070803;28;20371;-60
2023/10/27 02:30:11;;;;;;;6.93;3.10;;;;;;;;;;5068614;28;20491;-59
2023/10/27 02:32:38;;;;;;;5.70;3.40;;;;;;;;;;5065553;28;20032;-59
2023/10/27 02:35:05;;;;;;;6.33;2.73;;;;;;;;;;5065745;28;20020;-59
2023/10/27 02:37:31;;;;;;;3.20;2.20;;;;;;;;;;5065823;28;20032;-59
2023/10/27 02:39:58;;;;;;;4.57;3.03;;;;;;;;;;5066189;28;20028;-59
2023/10/27 02:42:25;;;;;;;2.60;1.87;;;;;;;;;;5070521;28;20340;-59
2023/10/27 02:44:51;;;;;;;3.30;2.30;;;;;;;;;;5070730;28;20032;-59
2023/10/27 02:47:18;;;;;;;3.17;2.07;;;;;;;;;;5070781;28;20020;-59
2023/10/27 02:49:45;;;;;;;8.10;2.40;;;;;;;;;;5070695;28;20105;-60
2023/10/27 02:52:12;;;;;;;4.63;2.60;;;;;;;;;;5069254;28;20450;-59
2023/10/27 02:54:39;;;;;;;3.73;2.33;;;;;;;;;;5071097;28;20032;-60
2023/10/27 02:57:06;;;;;;;2.57;1.77;;;;;;;;;;5085508;28;20020;-59
2023/10/27 02:59:32;;;;;;;5.30;2.57;;;;;;;;;;5085292;28;20067;-59
2023/10/27 03:01:59;;;;;;;8.03;3.40;;;;;;;;;;5079301;28;20035;-59
2023/10/27 03:04:27;;;;;;;9.70;2.80;;;;;;;;;;5070563;28;20024;-60
2023/10/27 03:06:54;;;;;;;5.90;3.27;;;;;;;;;;5070793;28;20017;-59
2023/10/27 03:09:21;;;;;;;5.70;3.10;;;;;;;;;;5070665;28;20024;-59
2023/10/27 03:11:47;;;;;;;2.30;1.63;;;;;;;;;;5070104;28;20414;-59
2023/10/27 03:14:15;;;;;;;3.40;2.47;;;;;;;;;;5071278;28;20467;-59
2023/10/27 03:16:43;;;;;;;3.80;2.63;;;;;;;;;;5069231;28;20028;-59
2023/10/27 03:19:09;;;;;;;4.03;2.73;;;;;;;;;;5086352;28;20028;-59
2023/10/27 03:21:36;;;;;;;4.17;2.13;;;;;;;;;;5086374;28;20024;-59
2023/10/27 03:24:03;;;;;;;5.13;3.47;;;;;;;;;;5086376;28;20039;-59
2023/10/27 03:26:29;;;;;;;3.60;2.63;;;;;;;;;;5091183;28;20020;-59
2023/10/27 03:28:56;;;;;;;5.70;2.87;;;;;;;;;;5091723;28;20501;-59
2023/10/27 03:31:22;;;;;;;4.43;2.53;;;;;;;;;;5091715;28;20039;-59
2023/10/27 03:33:49;;;;;;;3.67;2.17;;;;;;;;;;5081659;28;20032;-59
2023/10/27 03:36:16;;;;;;;3.63;2.80;;;;;;;;;;5071073;28;20027;-59
2023/10/27 03:38:42;;;;;;;6.43;3.20;;;;;;;;;;5048654;28;20025;-59
2023/10/27 03:41:09;;;;;;;16.47;3.23;;;;;;;;;;5065989;28;20029;-59
2023/10/27 03:43:36;;;;;;;12.03;2.53;;;;;;;;;;5066054;28;20048;-59
2023/10/27 03:46:02;;;;;;;5.40;2.97;;;;;;;;;;5066001;28;20105;-59
2023/10/27 03:48:29;;;;;;;3.93;2.90;;;;;;;;;;5069768;28;20025;-58
2023/10/27 03:50:57;;;;;;;7.27;3.37;;;;;;;;;;5085514;28;20109;-59
2023/10/27 03:53:24;;;;;;;5.93;3.50;;;;;;;;;;5090973;28;20040;-59
2023/10/27 03:55:54;;;;;;;6.33;2.93;;;;;;;;;;5082946;28;20024;-59
2023/10/27 03:58:21;;;;;;;5.63;2.80;;;;;;;;;;5074893;28;20046;-59
2023/10/27 04:00:47;;;;;;;5.33;3.30;;;;;;;;;;5070766;28;20008;-59
2023/10/27 04:03:14;;;;;;;4.63;2.67;;;;;;;;;;5069622;28;20024;-59
2023/10/27 04:05:41;;;;;;;3.87;2.80;;;;;;;;;;5069496;28;20028;-59
2023/10/27 04:08:07;;;;;;;7.33;3.33;;;;;;;;;;5069480;28;20017;-59
2023/10/27 04:10:35;;;;;;;5.70;3.43;;;;;;;;;;5072121;28;20029;-60
2023/10/27 04:13:07;;;;;;;5.03;3.60;;;;;;;;;;5074057;28;20028;-59
2023/10/27 04:15:37;;;;;;;6.10;4.33;;;;;;;;;;5074533;28;20029;-59
2023/10/27 04:18:07;;;;;;;5.43;3.50;;;;;;;;;;5074466;28;20036;-59
2023/10/27 04:20:34;;;;;;;4.77;3.30;;;;;;;;;;5070803;28;20117;-58
2023/10/27 04:23:01;;;;;;;4.67;3.23;;;;;;;;;;5057833;28;20078;-59
2023/10/27 04:25:30;;;;;;;3.50;2.63;;;;;;;;;;5070678;28;20043;-59
2023/10/27 04:27:58;;;;;;;3.60;2.60;;;;;;;;;;5068816;28;20021;-59
2023/10/27 04:30:26;;;;;;;5.40;3.10;;;;;;;;;;5056648;28;20025;-59
2023/10/27 04:32:55;;;;;;;3.63;2.30;;;;;;;;;;5051543;28;20033;-59
2023/10/27 04:35:24;;;;;;;6.60;3.50;;;;;;;;;;5054043;28;20079;-59
2023/10/27 04:37:50;;;;;;;5.00;2.90;;;;;;;;;;5056756;28;20016;-59
2023/10/27 04:40:17;;;;;;;3.43;2.77;;;;;;;;;;5074006;28;20020;-59
2023/10/27 04:42:43;;;;;;;2.93;2.17;;;;;;;;;;5088955;28;20028;-59
2023/10/27 04:45:11;;;;;;;6.10;3.27;;;;;;;;;;5082595;28;20059;-59
2023/10/27 04:47:38;;;;;;;3.67;2.60;;;;;;;;;;5089142;28;20099;-59
2023/10/27 04:50:08;;;;;;;15.47;3.40;;;;;;;;;;5089106;28;20506;-60
2023/10/27 04:52:37;;;;;;;4.30;2.87;;;;;;;;;;5070819;28;20131;-60
2023/10/27 04:55:08;;;;;;;4.57;2.90;;;;;;;;;;5068103;28;20020;-59
2023/10/27 04:57:38;;;;;;;4.30;2.97;;;;;;;;;;5055593;28;20024;-60
2023/10/27 05:00:05;;;;;;;8.60;2.70;;;;;;;;;;5086679;28;20024;-60
2023/10/27 05:02:36;;;;;;;3.40;2.07;;;;;;;;;;5093661;28;20070;-60
2023/10/27 05:05:14;;;;;;;2.90;2.20;;;;;;;;;;5093801;28;20031;-60
2023/10/27 05:07:44;;;;;;;4.37;2.50;;;;;;;;;;5091216;28;20428;-61
2023/10/27 05:10:35;;;;;;;5.50;3.43;;;;;;;;;;5088794;28;20536;-61
2023/10/27 05:13:04;;;;;;;4.43;2.80;;;;;;;;;;5067016;28;20075;-61
2023/10/27 05:15:37;;;;;;;2.97;1.90;;;;;;;;;;5070074;28;20445;-60
2023/10/27 05:18:07;;;;;;;3.77;2.57;;;;;;;;;;5091582;28;20409;-59
2023/10/27 05:20:37;;;;;;;3.77;2.57;;;;;;;;;;5093468;28;20417;-59
2023/10/27 05:23:04;;;;;;;5.20;3.00;;;;;;;;;;5066852;28;20075;-59
2023/10/27 05:25:31;;;;;;;9.53;2.27;;;;;;;;;;5052671;28;20507;-59
2023/10/27 05:27:58;;;;;;;3.50;2.10;;;;;;;;;;5065198;28;20423;-59
2023/10/27 05:30:27;;;;;;;4.27;2.37;;;;;;;;;;5075254;28;20471;-59
2023/10/27 05:32:54;;;;;;;6.93;2.80;;;;;;;;;;5067796;28;20383;-59
2023/10/27 05:35:21;;;;;;;3.57;2.63;;;;;;;;;;5068033;28;20469;-59
2023/10/27 05:37:48;;;;;;;3.97;2.57;;;;;;;;;;5067867;28;20402;-60
2023/10/27 05:40:15;;;;;;;3.83;2.03;;;;;;;;;;5070248;28;20017;-59
2023/10/27 05:42:41;;;;;;;16.10;2.93;;;;;;;;;;5072639;28;20361;-59
2023/10/27 05:45:11;;;;;;;9.30;2.77;;;;;;;;;;5072594;28;20025;-59
2023/10/27 05:47:41;;;;;;;2.50;1.90;;;;;;;;;;5089582;28;20032;-59
2023/10/27 05:50:09;;;;;;;4.27;1.83;;;;;;;;;;5092677;28;20028;-59
2023/10/27 05:52:36;;;;;;;6.13;2.20;;;;;;;;;;5090287;28;20056;-59
2023/10/27 05:55:04;;;;;;;4.30;3.10;;;;;;;;;;5086699;28;20024;-59
2023/10/27 05:57:32;;;;;;;3.47;2.43;;;;;;;;;;5084945;28;20031;-59
2023/10/27 05:59:59;;;;;;;5.87;2.50;;;;;;;;;;5081567;28;20032;-59
2023/10/27 06:02:25;;;;;;;3.67;2.63;;;;;;;;;;5087747;28;20082;-59
2023/10/27 06:04:52;;;;;;;12.63;3.10;;;;;;;;;;5090266;28;20074;-59
2023/10/27 06:07:19;;;;;;;3.40;2.30;;;;;;;;;;5091424;28;20031;-59
2023/10/27 06:09:46;;;;;;;3.47;2.57;;;;;;;;;;5091413;28;20486;-58
2023/10/27 06:12:13;;;;;;;4.67;2.30;;;;;;;;;;5091235;28;20389;-59
2023/10/27 06:14:44;;;;;;;2.20;1.70;;;;;;;;;;5088445;28;20020;-59
2023/10/27 06:17:14;;;;;;;4.07;2.47;;;;;;;;;;5055631;28;20518;-59
2023/10/27 06:19:41;;;;;;;3.13;2.33;;;;;;;;;;5058213;28;20077;-59
2023/10/27 06:22:09;;;;;;;6.53;2.77;;;;;;;;;;5074807;28;20028;-58
2023/10/27 06:24:36;;;;;;;3.37;2.07;;;;;;;;;;5066689;28;20036;-59
2023/10/27 06:27:05;;;;;;;3.97;2.23;;;;;;;;;;5071095;28;20020;-58
2023/10/27 06:29:33;;;;;;;2.50;1.87;;;;;;;;;;5071232;28;20024;-59
2023/10/27 06:32:00;;;;;;;3.97;2.17;;;;;;;;;;5070744;28;20039;-59
2023/10/27 06:34:27;;;;;;;2.90;2.13;;;;;;;;;;5070580;28;20051;-59
2023/10/27 06:36:54;;;;;;;3.93;1.70;;;;;;;;;;5069270;28;20475;-59
2023/10/27 06:39:20;;;;;;;3.03;1.93;;;;;;;;;;5065804;28;20024;-60
2023/10/27 06:41:49;;;;;;;2.97;2.00;;;;;;;;;;5065407;28;20032;-59
2023/10/27 06:44:17;;;;;;;2.70;1.87;;;;;;;;;;5065702;28;20107;-59
2023/10/27 06:46:45;;;;;;;2.73;1.80;;;;;;;;;;5063734;28;20070;-58
2023/10/27 06:49:13;;;;;;;5.27;2.53;;;;;;;;;;5070393;28;20041;-59
2023/10/27 06:51:40;;;;;;;6.43;2.33;;;;;;;;;;5070285;28;20467;-58
2023/10/27 06:54:06;;;;;;;7.20;3.47;;;;;;;;;;5070470;28;20044;-59
2023/10/27 06:56:33;;;;;;;2.73;2.03;;;;;;;;;;5070273;28;20097;-58
2023/10/27 06:59:00;;;;;;;4.77;2.33;;;;;;;;;;5069657;28;20024;-58
2023/10/27 07:01:26;;;;;;;2.40;1.77;;;;;;;;;;5065412;28;20025;-58
2023/10/27 07:03:53;;;;;;;4.47;1.97;;;;;;;;;;5065722;28;20025;-58
2023/10/27 07:06:20;;;;;;;2.47;1.70;;;;;;;;;;5047564;28;20031;-58
2023/10/27 07:08:46;;;;;;;2.50;1.70;;;;;;;;;;5065510;28;20044;-58
2023/10/27 07:11:13;;;;;;;1.73;1.20;;;;;;;;;;5069723;28;20482;-58
2023/10/27 07:13:40;;;;;;;5.13;2.17;;;;;;;;;;5070530;28;20048;-58
2023/10/27 07:16:07;;;;;;;3.73;1.60;;;;;;;;;;5070348;28;20050;-58
2023/10/27 07:18:33;;;;;;;6.73;2.17;;;;;;;;;;5070260;28;20105;-59
2023/10/27 07:21:00;;;;;;;6.00;2.07;;;;;;;;;;5067116;28;20387;-58
2023/10/27 07:23:28;;;;;;;2.97;2.00;;;;;;;;;;5085405;28;20020;-59
2023/10/27 07:25:55;;;;;;;2.87;1.97;;;;;;;;;;5061062;28;20044;-58
2023/10/27 07:28:21;;;;;;;3.20;1.80;;;;;;;;;;5045274;28;20486;-58
2023/10/27 07:30:48;;;;;;;3.37;2.10;;;;;;;;;;5047689;28;20060;-58
2023/10/27 07:33:15;;;;;;;3.83;2.20;;;;;;;;;;5052656;28;20041;-59
2023/10/27 07:35:41;;;;;;;2.33;1.70;;;;;;;;;;5054208;28;20028;-58
2023/10/27 07:38:08;;;;;;;3.60;2.40;;;;;;;;;;5057652;28;20036;-58
2023/10/27 07:40:41;;;;;;;2.10;1.60;;;;;;;;;;5073667;28;20028;-59
2023/10/27 07:43:08;;;;;;;5.40;2.20;;;;;;;;;;5073806;28;20025;-58
2023/10/27 07:45:34;;;;;;;6.83;2.73;;;;;;;;;;5068924;28;20025;-58
2023/10/27 07:48:03;;;;;;;2.23;1.50;;;;;;;;;;5068669;28;20024;-59
2023/10/27 07:50:30;;;;;;;3.30;2.07;;;;;;;;;;5068714;28;20031;-58
2023/10/27 07:52:56;;;;;;;6.20;2.10;;;;;;;;;;5069818;28;20029;-58
2023/10/27 07:55:23;;;;;;;3.20;2.10;;;;;;;;;;5073104;28;20489;-58
2023/10/27 07:57:50;;;;;;;1.63;1.27;;;;;;;;;;5092127;28;20445;-58
2023/10/27 08:00:17;;;;;;;4.20;1.80;;;;;;;;;;5095082;28;20409;-58
2023/10/27 08:02:54;;;;;;;4.77;1.80;;;;;;;;;;5095115;28;20116;-58
2023/10/27 08:05:20;;;;;;;3.83;2.57;;;;;;;;;;5095037;28;20032;-57
2023/10/27 08:07:47;;;;;;;2.83;1.90;;;;;;;;;;5090828;28;20024;-58
2023/10/27 08:10:14;;;;;;;2.00;1.57;;;;;;;;;;5089562;28;20032;-58
2023/10/27 08:12:41;;;;;;;2.07;1.63;;;;;;;;;;5089476;28;20056;-58
2023/10/27 08:15:09;;;;;;;2.63;1.90;;;;;;;;;;5083168;28;20028;-58
2023/10/27 08:17:36;;;;;;;4.00;2.03;;;;;;;;;;5054231;28;20029;-58
2023/10/27 08:20:03;;;;;;;5.37;1.87;;;;;;;;;;5073982;28;20505;-58
2023/10/27 08:22:32;;;;;;;2.13;1.50;;;;;;;;;;5074563;28;20071;-58
2023/10/27 08:24:59;;;;;;;3.60;2.00;;;;;;;;;;5074145;28;20383;-58
2023/10/27 08:27:26;;;;;;;1.47;1.10;;;;;;;;;;5074380;28;20021;-58
2023/10/27 08:29:55;;;;;;;2.63;1.77;;;;;;;;;;5071050;28;20024;-57
2023/10/27 08:32:22;;;;;;;2.17;1.53;;;;;;;;;;5068881;28;20033;-58
2023/10/27 08:34:49;;;;;;;5.53;1.93;;;;;;;;;;5068918;28;20029;-58
2023/10/27 08:37:16;;;;;;;3.03;2.07;;;;;;;;;;5068646;28;20489;-58
2023/10/27 08:39:43;;;;;;;4.63;2.20;;;;;;;;;;5071165;28;20028;-58
2023/10/27 08:42:10;;;;;;;3.03;2.33;;;;;;;;;;5073389;28;20021;-58
2023/10/27 08:44:37;;;;;;;3.00;1.93;;;;;;;;;;5073923;28;20108;-57
2023/10/27 08:47:06;;;;;;;2.97;2.17;;;;;;;;;;5073728;28;20028;-58
2023/10/27 08:49:33;;;;;;;3.27;2.33;;;;;;;;;;5073915;28;20020;-58
2023/10/27 08:52:00;;;;;;;2.63;1.73;;;;;;;;;;5071237;28;20124;-57
2023/10/27 08:54:27;;;;;;;2.17;1.70;;;;;;;;;;5073506;28;20028;-58
2023/10/27 08:56:53;;;;;;;2.17;1.43;;;;;;;;;;5088759;28;20027;-58
2023/10/27 08:59:21;;;;;;;2.50;1.83;;;;;;;;;;5088557;28;20426;-58
2023/10/27 09:01:47;;;;;;;4.70;2.67;;;;;;;;;;5090384;28;20099;-57
2023/10/27 09:04:15;;;;;;;2.13;1.43;;;;;;;;;;5093792;28;20031;-58
2023/10/27 09:06:42;;;;;;;2.83;2.00;;;;;;;;;;5093900;28;20024;-57
2023/10/27 09:09:12;;;;;;;2.80;1.80;;;;;;;;;;5093227;28;20020;-57
2023/10/27 09:11:42;;;;;;;2.83;1.70;;;;;;;;;;5092853;28;20123;-58
2023/10/27 09:14:26;;;;;;;2.93;1.97;;;;;;;;;;5089785;28;20497;-57
2023/10/27 09:17:05;;;;;;;2.15;1.60;;;;;;;;;;5088189;28;20028;-57
2023/10/27 09:19:32;;;;;;;4.33;2.33;;;;;;;;;;5070074;28;20527;-57
2023/10/27 09:21:59;;;;;;;4.27;2.10;;;;;;;;;;5067712;28;20108;-58
2023/10/27 09:24:26;;;;;;;3.83;1.90;;;;;;;;;;5070204;28;20028;-57
2023/10/27 09:26:54;;;;;;;4.63;2.40;;;;;;;;;;5073185;28;20067;-57
2023/10/27 09:29:21;;;;;;;2.53;1.73;;;;;;;;;;5073998;28;20024;-58
2023/10/27 09:31:48;;;;;;;2.10;1.53;;;;;;;;;;5072993;28;20123;-57
2023/10/27 09:34:19;;;;;;;3.50;2.50;;;;;;;;;;5072812;28;20036;-58
2023/10/27 09:36:47;;;;;;;6.83;2.10;;;;;;;;;;5070387;28;20028;-57
2023/10/27 09:39:18;;;;;;;3.00;1.67;;;;;;;;;;5067515;28;20024;-58
2023/10/27 09:41:52;;;;;;;3.40;2.40;;;;;;;;;;5067560;28;20029;-57
2023/10/27 09:44:20;;;;;;;4.03;2.40;;;;;;;;;;5067808;28;20032;-58
2023/10/27 09:46:51;;;;;;;3.40;1.83;;;;;;;;;;5072069;28;20429;-57
2023/10/27 09:49:24;;;;;;;5.10;2.63;;;;;;;;;;5092419;28;20020;-58
2023/10/27 09:51:53;;;;;;;1.70;1.30;;;;;;;;;;5091922;28;20038;-57
2023/10/27 09:54:20;;;;;;;1.60;1.03;;;;;;;;;;5092472;28;20478;-57
2023/10/27 09:56:47;;;;;;;2.37;1.80;;;;;;;;;;5092797;28;20036;-57
2023/10/27 09:59:14;;;;;;;3.17;2.07;;;;;;;;;;5090193;28;20024;-58
2023/10/27 10:01:40;;;;;;;1.70;1.33;;;;;;;;;;5087553;28;20030;-58
2023/10/27 10:04:07;;;;;;;2.00;1.43;;;;;;;;;;5087448;28;20438;-58
2023/10/27 10:06:35;;;;;;;5.03;1.73;;;;;;;;;;5071373;28;20372;-57
2023/10/27 10:09:19;;;;;;;2.07;1.30;;;;;;;;;;5068434;28;20444;-57
2023/10/27 10:11:48;;;;;;;2.83;2.03;;;;;;;;;;5072187;28;20094;-57
2023/10/27 10:14:53;;;;;;;2.43;1.73;;;;;;;;;;5072428;28;20020;-57
2023/10/27 10:17:38;;;;;;;3.40;2.27;;;;;;;;;;4990704;28;20050;-58
2023/10/27 10:20:05;;;;;;;;;;;;;;;;;;4991093;28;20033;-57
2023/10/27 10:22:39;;;;;;;3.07;2.03;;;;;;;;;;5006615;28;19958;-58
2023/10/27 10:25:21;;;;;;;1.10;0.97;;;;;;;;;;5052922;28;20089;-57
2023/10/27 10:28:06;;;;;;;2.00;1.50;;;;;;;;;;5086507;28;20494;-58
2023/10/27 10:30:33;;;;;;;4.70;2.75;;;;;;;;;;5066949;28;20086;-57
2023/10/27 10:33:15;;;;;;;3.37;1.93;;;;;;;;;;5071961;28;20031;-57
2023/10/27 10:35:42;;;;;;;1.83;1.53;;;;;;;;;;5072052;28;20021;-58
2023/10/27 10:38:24;;;;;;;2.43;1.63;;;;;;;;;;5072005;28;20483;-58
2023/10/27 10:40:52;;;;;;;3.83;1.87;;;;;;;;;;5081140;28;20038;-57
2023/10/27 10:43:20;;;;;;;4.13;1.70;;;;;;;;;;5091055;28;20028;-57
2023/10/27 10:45:53;;;;;;;4.10;2.57;;;;;;;;;;5086426;28;20028;-57
2023/10/27 10:48:21;;;;;;;4.73;2.03;;;;;;;;;;5087011;28;20024;-57
2023/10/27 10:50:49;;;;;;;4.70;1.63;;;;;;;;;;5086921;28;20364;-57
2023/10/27 10:53:16;;;;;;;2.87;1.87;;;;;;;;;;5086962;28;20036;-57
2023/10/27 10:55:46;;;;;;;1.87;1.37;;;;;;;;;;5092045;28;20426;-57
2023/10/27 10:58:26;;;;;;;6.50;2.00;;;;;;;;;;5080370;28;20025;-57
2023/10/27 11:00:53;;;;;;;1.63;1.27;;;;;;;;;;5076099;28;20028;-57
2023/10/27 11:03:21;;;;;;;3.40;1.77;;;;;;;;;;5072012;28;20361;-57
2023/10/27 11:05:48;;;;;;;2.00;1.43;;;;;;;;;;5074645;28;20108;-58
2023/10/27 11:08:25;;;;;;;2.37;1.47;;;;;;;;;;5070565;28;20067;-58
2023/10/27 11:10:59;;;;;;;2.70;1.47;;;;;;;;;;5070599;28;20033;-57
2023/10/27 11:13:26;;;;;;;3.07;2.13;;;;;;;;;;5074422;28;20043;-58
2023/10/27 11:15:53;;;;;;;2.37;1.63;;;;;;;;;;5091598;28;20024;-57
2023/10/27 11:18:19;;;;;;;1.93;1.50;;;;;;;;;;5095481;28;20032;-57
2023/10/27 11:20:48;;;;;;;2.87;2.00;;;;;;;;;;5095855;28;20028;-58
2023/10/27 11:23:15;;;;;;;1.87;1.40;;;;;;;;;;5095668;28;20459;-57
2023/10/27 11:25:42;;;;;;;2.33;1.70;;;;;;;;;;5095853;28;20024;-58
2023/10/27 11:28:18;;;;;;;3.23;2.07;;;;;;;;;;5094566;28;20047;-58
2023/10/27 11:30:57;;;;;;;21.67;2.10;;;;;;;;;;5090454;28;20074;-57
2023/10/27 11:33:24;;;;;;;2.53;1.70;;;;;;;;;;5073506;28;20037;-58
2023/10/27 11:35:51;;;;;;;6.63;2.50;;;;;;;;;;5070021;28;20025;-57
2023/10/27 11:38:17;;;;;;;3.50;2.43;;;;;;;;;;5081684;28;20028;-58
2023/10/27 11:40:44;;;;;;;3.10;2.10;;;;;;;;;;5095481;28;20020;-57
2023/10/27 11:43:11;;;;;;;4.40;3.33;;;;;;;;;;5095014;28;20024;-58
2023/10/27 11:45:37;;;;;;;9.60;7.33;;;;;;;;;;5095515;28;20378;-58
2023/10/27 11:48:04;;;;;;;9.20;6.93;;;;;;;;;;5095345;28;20024;-58
2023/10/27 11:50:31;;;;;;;2.60;2.10;;;;;;;;;;5094382;28;20028;-58
2023/10/27 11:52:58;;;;;;;4.00;2.33;;;;;;;;;;5081160;28;20043;-58
2023/10/27 11:55:25;;;;;;;10.20;3.30;;;;;;;;;;5069774;28;20453;-58
2023/10/27 11:57:51;;;;;;;3.33;2.30;;;;;;;;;;5069797;28;20031;-58
2023/10/27 12:00:18;;;;;;;4.20;3.13;;;;;;;;;;5069332;28;20024;-57
2023/10/27 12:02:45;;;;;;;5.83;3.80;;;;;;;;;;5074835;28;20016;-57
2023/10/27 12:05:12;;;;;;;3.37;2.23;;;;;;;;;;5074664;28;20028;-57
2023/10/27 12:07:39;;;;;;;3.30;2.03;;;;;;;;;;5080088;28;20483;-58
2023/10/27 12:10:05;;;;;;;2.17;1.43;;;;;;;;;;5094673;28;20520;-58
2023/10/27 12:12:32;;;;;;;1.77;1.27;;;;;;;;;;5094834;28;20038;-57
2023/10/27 12:14:59;;;;;;;1.80;1.20;;;;;;;;;;5089103;28;20474;-57
2023/10/27 12:17:26;;;;;;;2.57;1.47;;;;;;;;;;5089310;28;20371;-57
2023/10/27 12:19:53;;;;;;;3.77;1.50;;;;;;;;;;5089331;28;20600;-58
2023/10/27 12:22:20;;;;;;;2.17;1.27;;;;;;;;;;5086160;28;20025;-58
2023/10/27 12:24:47;;;;;;;1.80;1.20;;;;;;;;;;5073566;28;20020;-57
2023/10/27 12:27:14;;;;;;;3.73;1.83;;;;;;;;;;5074077;28;20387;-58
2023/10/27 12:29:42;;;;;;;6.30;2.70;;;;;;;;;;5074432;28;20194;-57
2023/10/27 12:32:09;;;;;;;3.97;2.30;;;;;;;;;;5074206;28;20506;-57
2023/10/27 12:34:36;;;;;;;29.00;2.83;;;;;;;;;;5074341;28;20555;-57
2023/10/27 12:37:03;;;;;;;4.60;2.17;;;;;;;;;;5069096;28;20025;-58
2023/10/27 12:39:30;;;;;;;6.20;2.97;;;;;;;;;;5077757;28;20081;-57
2023/10/27 12:41:56;;;;;;;3.40;2.40;;;;;;;;;;5089090;28;20020;-57
2023/10/27 12:44:23;;;;;;;3.90;2.67;;;;;;;;;;5088959;28;20027;-58
2023/10/27 12:46:50;;;;;;;1.63;1.37;;;;;;;;;;5092694;28;20103;-57
2023/10/27 12:49:17;;;;;;;2.13;1.77;;;;;;;;;;5094194;28;20031;-57
2023/10/27 12:51:44;;;;;;;2.23;1.47;;;;;;;;;;5094003;28;20036;-57
2023/10/27 12:54:11;;;;;;;3.20;1.33;;;;;;;;;;5093718;28;20031;-57
2023/10/27 12:56:38;;;;;;;4.23;1.80;;;;;;;;;;5094088;28;20419;-57
2023/10/27 12:59:05;;;;;;;1.17;0.87;;;;;;;;;;5073167;28;20047;-57
2023/10/27 13:01:32;;;;;;;2.60;1.83;;;;;;;;;;5068461;28;20017;-57
2023/10/27 13:03:59;;;;;;;2.30;1.70;;;;;;;;;;5068493;28;20060;-57
2023/10/27 13:06:26;;;;;;;4.27;1.70;;;;;;;;;;5068419;28;20085;-58
2023/10/27 13:08:53;;;;;;;2.80;1.70;;;;;;;;;;5071019;28;20028;-58
2023/10/27 13:11:19;;;;;;;1.67;1.23;;;;;;;;;;5073395;28;20027;-57
2023/10/27 13:13:46;;;;;;;2.03;1.57;;;;;;;;;;5073198;28;20048;-57
2023/10/27 13:16:13;;;;;;;3.93;2.47;;;;;;;;;;5080104;28;20012;-57
2023/10/27 13:18:40;;;;;;;2.60;1.70;;;;;;;;;;5093507;28;20099;-57
2023/10/27 13:21:18;;;;;;;3.43;1.80;;;;;;;;;;5090529;28;20125;-58
2023/10/27 13:23:45;;;;;;;2.77;1.97;;;;;;;;;;5088034;28;20027;-57
2023/10/27 13:26:12;;;;;;;1.93;1.50;;;;;;;;;;5087912;28;20145;-57
2023/10/27 13:28:40;;;;;;;2.90;1.93;;;;;;;;;;5087824;28;20032;-57
2023/10/27 13:31:07;;;;;;;3.40;2.33;;;;;;;;;;5081866;28;20020;-58
2023/10/27 13:33:35;;;;;;;1.63;1.33;;;;;;;;;;5073202;28;20032;-57
2023/10/27 13:36:14;;;;;;;1.10;1.00;;;;;;;;;;5072835;28;20058;-57
2023/10/27 13:38:41;;;;;;;1.50;1.20;;;;;;;;;;5072767;28;20408;-57
2023/10/27 13:41:15;;;;;;;3.47;1.83;;;;;;;;;;5073002;28;20024;-58
2023/10/27 13:43:42;;;;;;;4.27;1.93;;;;;;;;;;5069686;28;20411;-59
2023/10/27 13:46:10;;;;;;;4.47;1.83;;;;;;;;;;5079014;28;20020;-58
2023/10/27 13:48:37;;;;;;;2.70;1.37;;;;;;;;;;5087889;28;20386;-58
2023/10/27 13:51:10;;;;;;;10.13;1.53;;;;;;;;;;5087715;28;20042;-58
2023/10/27 13:53:38;;;;;;;3.47;1.93;;;;;;;;;;5089997;28;20034;-58
2023/10/27 13:56:06;;;;;;;2.30;1.47;;;;;;;;;;5071385;28;20029;-57
2023/10/27 13:58:33;;;;;;;2.97;1.63;;;;;;;;;;5078107;28;20042;-58
2023/10/27 14:01:01;;;;;;;1.67;1.10;;;;;;;;;;5084723;28;20039;-58
2023/10/27 14:03:29;;;;;;;4.20;1.53;;;;;;;;;;5090702;28;20032;-58
2023/10/27 14:05:56;;;;;;;2.37;1.83;;;;;;;;;;5087356;28;20024;-58
2023/10/27 14:08:23;;;;;;;2.40;1.70;;;;;;;;;;5086005;28;20027;-58
2023/10/27 14:10:52;;;;;;;3.63;1.87;;;;;;;;;;5087308;28;20031;-59
2023/10/27 14:13:21;;;;;;;2.30;1.43;;;;;;;;;;5086557;28;20048;-58
2023/10/27 14:15:48;;;;;;;3.50;1.90;;;;;;;;;;5080429;28;20032;-58
2023/10/27 14:18:15;;;;;;;1.40;1.27;;;;;;;;;;5072413;28;20099;-58
2023/10/27 14:20:42;;;;;;;2.07;1.40;;;;;;;;;;5072255;28;20031;-58
2023/10/27 14:23:09;;;;;;;1.93;1.30;;;;;;;;;;5072027;28;20091;-58
2023/10/27 14:25:36;;;;;;;2.07;1.30;;;;;;;;;;5072448;28;20025;-58
2023/10/27 14:28:03;;;;;;;1.33;1.13;;;;;;;;;;5069601;28;20103;-58
2023/10/27 14:30:30;;;;;;;1.67;1.07;;;;;;;;;;5066847;28;20523;-58
2023/10/27 14:32:59;;;;;;;2.13;1.27;;;;;;;;;;5081070;28;20421;-58
2023/10/27 14:35:27;;;;;;;1.83;1.20;;;;;;;;;;5086984;28;20031;-59
2023/10/27 14:37:56;;;;;;;1.43;0.97;;;;;;;;;;5087435;28;20031;-58
2023/10/27 14:40:24;;;;;;;1.30;1.10;;;;;;;;;;5091294;28;20070;-59
2023/10/27 14:42:52;;;;;;;2.90;1.30;;;;;;;;;;5079649;28;20498;-58
2023/10/27 14:45:19;;;;;;;2.50;1.57;;;;;;;;;;5070919;28;20487;-59
2023/10/27 14:47:46;;;;;;;1.40;1.03;;;;;;;;;;5071299;28;20103;-58